createdAt,value
2018-06-05T00:01:43.869Z,99614.00
2018-06-05T00:04:11.413Z,99615.00
2018-06-05T00:06:38.965Z,99614.00
2018-06-05T00:09:07.177Z,99607.00
2018-06-05T00:11:35.401Z,99602.00
2018-06-05T00:14:02.964Z,99612.00
2018-06-05T00:16:30.501Z,99611.00
2018-06-05T00:18:58.049Z,99607.00
2018-06-05T00:21:25.610Z,99610.00
2018-06-05T00:23:53.164Z,99611.00
2018-06-05T00:26:20.719Z,99608.00
2018-06-05T00:28:48.268Z,99607.00
2018-06-05T00:31:15.810Z,99617.00
2018-06-05T00:33:43.333Z,99610.00
2018-06-05T00:36:10.877Z,99606.00
2018-06-05T00:38:38.410Z,99609.00
2018-06-05T00:41:06.001Z,99606.00
2018-06-05T00:43:33.533Z,99611.00
2018-06-05T00:46:01.071Z,99622.00
2018-06-05T00:48:28.609Z,99613.00
2018-06-05T00:50:56.164Z,99620.00
2018-06-05T00:53:23.718Z,99618.00
2018-06-05T00:55:51.865Z,99619.00
2018-06-05T00:58:19.406Z,99626.00
2018-06-05T01:00:46.959Z,99616.00
2018-06-05T01:03:14.505Z,99613.00
2018-06-05T01:05:42.041Z,99613.00
2018-06-05T01:08:09.598Z,99610.00
2018-06-05T01:10:37.166Z,99613.00
2018-06-05T01:13:04.732Z,99614.00
2018-06-05T01:15:32.285Z,99611.00
2018-06-05T01:17:59.816Z,99606.00
2018-06-05T01:20:27.357Z,99603.00
2018-06-05T01:22:54.945Z,99611.00
2018-06-05T01:25:22.554Z,99603.00
2018-06-05T01:27:50.095Z,99608.00
2018-06-05T01:30:17.620Z,99606.00
2018-06-05T01:32:45.166Z,99613.00
2018-06-05T01:35:12.717Z,99615.00
2018-06-05T01:37:40.263Z,99616.00
2018-06-05T01:40:07.806Z,99611.00
2018-06-05T01:42:35.357Z,99613.00
2018-06-05T01:45:02.934Z,99615.00
2018-06-05T01:47:30.478Z,99621.00
2018-06-05T01:49:58.029Z,99615.00
2018-06-05T01:52:25.597Z,99614.00
2018-06-05T01:54:53.129Z,99610.00
2018-06-05T01:57:20.687Z,99613.00
2018-06-05T01:59:48.225Z,99611.00
2018-06-05T02:02:15.771Z,99614.00
2018-06-05T02:04:43.320Z,99616.00
2018-06-05T02:07:10.874Z,99613.00
2018-06-05T02:09:38.421Z,99606.00
2018-06-05T02:12:05.973Z,99619.00
2018-06-05T02:14:33.545Z,99622.00
2018-06-05T02:17:01.102Z,99621.00
2018-06-05T02:19:28.660Z,99627.00
2018-06-05T02:21:56.237Z,99633.00
2018-06-05T02:24:23.775Z,99628.00
2018-06-05T02:26:51.329Z,99619.00
2018-06-05T02:29:18.921Z,99620.00
2018-06-05T02:31:46.475Z,99630.00
2018-06-05T02:34:14.053Z,99629.00
2018-06-05T02:36:41.571Z,99632.00
2018-06-05T02:39:09.404Z,99636.00
2018-06-05T02:41:36.969Z,99633.00
2018-06-05T02:44:04.529Z,99636.00
2018-06-05T02:46:32.081Z,99643.00
2018-06-05T02:48:59.645Z,99641.00
2018-06-05T02:51:27.183Z,99636.00
2018-06-05T02:53:54.731Z,99636.00
2018-06-05T02:56:22.286Z,99653.00
2018-06-05T02:58:49.829Z,99647.00
2018-06-05T03:01:17.420Z,99648.00
2018-06-05T03:03:44.929Z,99646.00
2018-06-05T03:06:12.477Z,99647.00
2018-06-05T03:08:40.785Z,99650.00
2018-06-05T03:11:08.528Z,99664.00
2018-06-05T03:13:36.087Z,99653.00
2018-06-05T03:16:03.682Z,99654.00
2018-06-05T03:18:31.234Z,99655.00
2018-06-05T03:20:58.790Z,99654.00
2018-06-05T03:23:26.327Z,99654.00
2018-06-05T03:25:53.865Z,99649.00
2018-06-05T03:28:21.414Z,99662.00
2018-06-05T03:30:48.971Z,99669.00
2018-06-05T03:33:16.533Z,99672.00
2018-06-05T03:35:44.093Z,99680.00
2018-06-05T03:38:11.689Z,99680.00
2018-06-05T03:40:39.243Z,99679.00
2018-06-05T03:43:06.813Z,99674.00
2018-06-05T03:45:34.369Z,99682.00
2018-06-05T03:48:01.934Z,99680.00
2018-06-05T03:50:29.484Z,99688.00
2018-06-05T03:52:57.030Z,99685.00
2018-06-05T03:55:24.573Z,99682.00
2018-06-05T03:57:52.103Z,99682.00
2018-06-05T04:00:19.656Z,99688.00
2018-06-05T04:02:47.205Z,99687.00
2018-06-05T04:05:14.778Z,99695.00
2018-06-05T04:07:42.349Z,99700.00
2018-06-05T04:10:09.953Z,99694.00
2018-06-05T04:12:37.485Z,99695.00
2018-06-05T04:15:05.041Z,99703.00
2018-06-05T04:17:32.570Z,99706.00
2018-06-05T04:20:00.102Z,99710.00
2018-06-05T04:22:27.645Z,99707.00
2018-06-05T04:24:55.202Z,99714.00
2018-06-05T04:27:22.755Z,99714.00
2018-06-05T04:29:50.309Z,99711.00
2018-06-05T04:32:17.897Z,99708.00
2018-06-05T04:34:45.450Z,99715.00
2018-06-05T04:37:12.985Z,99721.00
2018-06-05T04:39:40.553Z,99729.00
2018-06-05T04:42:08.122Z,99733.00
2018-06-05T04:44:35.676Z,99728.00
2018-06-05T04:47:03.228Z,99729.00
2018-06-05T04:49:30.782Z,99731.00
2018-06-05T04:51:58.326Z,99739.00
2018-06-05T04:54:25.865Z,99739.00
2018-06-05T04:56:53.424Z,99738.00
2018-06-05T04:59:20.983Z,99740.00
2018-06-05T05:01:48.543Z,99740.00
2018-06-05T05:04:16.122Z,99743.00
2018-06-05T05:06:43.694Z,99748.00
2018-06-05T05:09:11.230Z,99754.00
2018-06-05T05:11:38.802Z,99746.00
2018-06-05T05:14:06.339Z,99758.00
2018-06-05T05:16:33.898Z,99758.00
2018-06-05T05:19:01.442Z,99751.00
2018-06-05T05:21:50.258Z,99753.00
2018-06-05T05:24:17.800Z,99752.00
2018-06-05T05:26:45.366Z,99760.00
2018-06-05T05:29:12.904Z,99762.00
2018-06-05T05:31:40.470Z,99764.00
2018-06-05T05:34:08.041Z,99768.00
2018-06-05T05:36:35.594Z,99778.00
2018-06-05T05:39:04.565Z,99777.00
2018-06-05T05:41:32.123Z,99776.00
2018-06-05T05:43:59.665Z,99779.00
2018-06-05T05:46:27.257Z,99774.00
2018-06-05T05:48:54.794Z,99769.00
2018-06-05T05:51:22.342Z,99763.00
2018-06-05T05:53:49.899Z,99782.00
2018-06-05T05:56:17.710Z,99780.00
2018-06-05T05:58:45.282Z,99772.00
2018-06-05T06:01:13.117Z,99774.00
2018-06-05T06:03:40.691Z,99771.00
2018-06-05T06:06:08.269Z,99767.00
2018-06-05T06:08:35.810Z,99771.00
2018-06-05T06:11:03.371Z,99772.00
2018-06-05T06:13:30.973Z,99775.00
2018-06-05T06:15:58.596Z,99773.00
2018-06-05T06:18:26.158Z,99776.00
2018-06-05T06:20:53.752Z,99777.00
2018-06-05T06:23:21.317Z,99776.00
2018-06-05T06:25:48.865Z,99772.00
2018-06-05T06:28:16.416Z,99767.00
2018-06-05T06:30:43.965Z,99771.00
2018-06-05T06:33:11.517Z,99777.00
2018-06-05T06:35:39.065Z,99785.00
2018-06-05T06:38:06.631Z,99794.00
2018-06-05T06:40:34.169Z,99780.00
2018-06-05T06:43:01.724Z,99788.00
2018-06-05T06:45:29.280Z,99788.00
2018-06-05T06:47:56.844Z,99785.00
2018-06-05T06:50:24.597Z,99787.00
2018-06-05T06:52:52.166Z,99795.00
2018-06-05T06:55:19.733Z,99788.00
2018-06-05T06:57:47.290Z,99802.00
2018-06-05T07:00:14.862Z,99803.00
2018-06-05T07:02:44.857Z,99803.00
2018-06-05T07:05:12.405Z,99804.00
2018-06-05T07:07:39.968Z,99806.00
2018-06-05T07:10:10.871Z,99807.00
2018-06-05T07:12:38.434Z,99803.00
2018-06-05T07:15:05.998Z,99807.00
2018-06-05T07:17:34.028Z,99806.00
2018-06-05T07:20:01.586Z,99805.00
2018-06-05T07:22:29.142Z,99809.00
2018-06-05T07:24:56.685Z,99819.00
2018-06-05T07:27:24.274Z,99808.00
2018-06-05T07:29:51.830Z,99807.00
2018-06-05T07:32:19.385Z,99813.00
2018-06-05T07:34:46.938Z,99811.00
2018-06-05T07:37:14.465Z,99820.00
2018-06-05T07:39:42.002Z,99820.00
2018-06-05T07:42:09.549Z,99826.00
2018-06-05T07:44:37.193Z,99822.00
2018-06-05T07:47:04.992Z,99829.00
2018-06-05T07:49:32.534Z,99835.00
2018-06-05T07:52:00.090Z,99839.00
2018-06-05T07:54:27.646Z,99833.00
2018-06-05T07:56:55.212Z,99837.00
2018-06-05T07:59:22.769Z,99838.00
2018-06-05T08:01:50.325Z,99833.00
2018-06-05T08:04:17.901Z,99838.00
2018-06-05T08:06:45.449Z,99836.00
2018-06-05T08:09:13.077Z,99832.00
2018-06-05T08:11:40.617Z,99837.00
2018-06-05T08:14:08.180Z,99841.00
2018-06-05T08:16:35.733Z,99842.00
2018-06-05T08:19:03.302Z,99845.00
2018-06-05T08:21:37.425Z,99842.00
2018-06-05T08:24:05.026Z,99841.00
2018-06-05T08:27:03.765Z,99840.00
2018-06-05T08:29:31.318Z,99843.00
2018-06-05T08:31:58.884Z,99841.00
2018-06-05T08:34:26.430Z,99851.00
2018-06-05T08:36:53.957Z,99850.00
2018-06-05T08:39:21.501Z,99859.00
2018-06-05T08:41:49.049Z,99864.00
2018-06-05T08:44:16.626Z,99864.00
2018-06-05T08:46:44.189Z,99866.00
2018-06-05T08:49:11.749Z,99861.00
2018-06-05T08:51:39.310Z,99863.00
2018-06-05T08:54:06.908Z,99862.00
2018-06-05T08:56:34.442Z,99861.00
2018-06-05T08:59:01.990Z,99854.00
2018-06-05T09:01:35.770Z,99866.00
2018-06-05T09:04:03.334Z,99859.00
2018-06-05T09:06:47.365Z,99864.00
2018-06-05T09:12:33.949Z,99868.00
2018-06-05T09:15:06.214Z,99864.00
2018-06-05T09:17:33.858Z,99873.00
2018-06-05T09:20:01.427Z,99884.00
2018-06-05T09:22:29.006Z,99881.00
2018-06-05T09:24:57.664Z,99881.00
2018-06-05T09:27:25.210Z,99886.00
2018-06-05T09:29:52.778Z,99890.00
2018-06-05T09:32:20.350Z,99890.00
2018-06-05T09:34:47.910Z,99889.00
2018-06-05T09:37:15.494Z,99898.00
2018-06-05T09:39:43.057Z,99892.00
2018-06-05T09:42:14.111Z,99899.00
2018-06-05T09:44:41.666Z,99903.00
2018-06-05T09:47:09.239Z,99904.00
2018-06-05T09:49:36.768Z,99896.00
2018-06-05T09:52:05.174Z,99897.00
2018-06-05T09:54:32.733Z,99885.00
2018-06-05T09:57:30.798Z,99898.00
2018-06-05T09:59:58.344Z,99891.00
2018-06-05T10:02:25.889Z,99891.00
2018-06-05T10:04:53.435Z,99888.00
2018-06-05T10:07:20.992Z,99879.00
2018-06-05T10:09:48.551Z,99877.00
2018-06-05T10:12:16.088Z,99872.00
2018-06-05T10:14:43.666Z,99878.00
2018-06-05T10:17:11.201Z,99872.00
2018-06-05T10:19:38.750Z,99884.00
2018-06-05T10:22:06.310Z,99886.00
2018-06-05T10:24:33.854Z,99885.00
2018-06-05T10:27:01.418Z,99886.00
2018-06-05T10:29:28.957Z,99888.00
2018-06-05T10:31:56.510Z,99888.00
2018-06-05T10:34:24.084Z,99884.00
2018-06-05T10:36:51.637Z,99895.00
2018-06-05T10:39:19.184Z,99887.00
2018-06-05T10:41:46.747Z,99893.00
2018-06-05T10:44:14.284Z,99886.00
2018-06-05T10:46:41.834Z,99895.00
2018-06-05T10:49:09.386Z,99892.00
2018-06-05T10:51:36.970Z,99903.00
2018-06-05T10:54:04.521Z,99889.00
2018-06-05T10:56:32.082Z,99900.00
2018-06-05T10:58:59.649Z,99898.00
2018-06-05T11:01:27.183Z,99901.00
2018-06-05T11:03:54.749Z,99891.00
2018-06-05T11:06:22.307Z,99885.00
2018-06-05T11:08:49.856Z,99887.00
2018-06-05T11:11:17.561Z,99891.00
2018-06-05T11:13:45.114Z,99892.00
2018-06-05T11:16:12.669Z,99895.00
2018-06-05T11:18:40.232Z,99889.00
2018-06-05T11:21:07.797Z,99892.00
2018-06-05T11:23:35.384Z,99894.00
2018-06-05T11:26:02.926Z,99895.00
2018-06-05T11:28:30.506Z,99887.00
2018-06-05T11:30:58.054Z,99883.00
2018-06-05T11:33:25.605Z,99884.00
2018-06-05T11:35:53.137Z,99880.00
2018-06-05T11:38:20.689Z,99870.00
2018-06-05T11:40:48.229Z,99876.00
2018-06-05T11:43:15.768Z,99879.00
2018-06-05T11:45:43.312Z,99873.00
2018-06-05T11:48:10.883Z,99873.00
2018-06-05T11:50:38.454Z,99879.00
2018-06-05T11:53:06.042Z,99875.00
2018-06-05T11:55:33.652Z,99875.00
2018-06-05T11:58:01.193Z,99875.00
2018-06-05T12:00:28.749Z,99868.00
2018-06-05T12:02:56.277Z,99870.00
2018-06-05T12:05:23.850Z,99875.00
2018-06-05T12:07:51.415Z,99876.00
2018-06-05T12:10:18.995Z,99881.00
2018-06-05T12:12:46.570Z,99885.00
2018-06-05T12:15:14.170Z,99886.00
2018-06-05T12:17:41.741Z,99871.00
2018-06-05T12:20:09.309Z,99875.00
2018-06-05T12:22:36.888Z,99863.00
2018-06-05T12:25:04.464Z,99863.00
2018-06-05T12:27:32.025Z,99861.00
2018-06-05T12:29:59.573Z,99855.00
2018-06-05T12:32:27.132Z,99856.00
2018-06-05T12:34:54.678Z,99846.00
2018-06-05T12:37:22.233Z,99850.00
2018-06-05T12:39:49.765Z,99850.00
2018-06-05T12:42:17.306Z,99839.00
2018-06-05T12:44:44.862Z,99845.00
2018-06-05T12:47:12.413Z,99851.00
2018-06-05T12:49:39.949Z,99845.00
2018-06-05T12:52:07.489Z,99848.00
2018-06-05T12:54:35.041Z,99845.00
2018-06-05T12:57:02.605Z,99854.00
2018-06-05T12:59:30.162Z,99855.00
2018-06-05T13:01:57.717Z,99869.00
2018-06-05T13:04:25.280Z,99860.00
2018-06-05T13:06:52.845Z,99866.00
2018-06-05T13:09:20.426Z,99865.00
2018-06-05T13:11:48.013Z,99861.00
2018-06-05T13:14:15.530Z,99865.00
2018-06-05T13:16:43.098Z,99859.00
2018-06-05T13:19:10.646Z,99856.00
2018-06-05T13:21:38.209Z,99848.00
2018-06-05T13:24:05.773Z,99854.00
2018-06-05T13:26:33.350Z,99860.00
2018-06-05T13:29:00.909Z,99862.00
2018-06-05T13:31:28.469Z,99856.00
2018-06-05T13:33:56.017Z,99845.00
2018-06-05T13:36:23.566Z,99850.00
2018-06-05T13:38:51.108Z,99846.00
2018-06-05T13:41:18.650Z,99849.00
2018-06-05T13:43:46.254Z,99849.00
2018-06-05T13:46:13.769Z,99857.00
2018-06-05T13:48:43.344Z,99848.00
2018-06-05T13:51:10.909Z,99858.00
2018-06-05T13:53:38.473Z,99851.00
2018-06-05T13:56:23.406Z,99860.00
2018-06-05T13:58:50.957Z,99861.00
2018-06-05T14:01:18.524Z,99850.00
2018-06-05T14:03:46.073Z,99850.00
2018-06-05T14:06:13.645Z,99849.00
2018-06-05T14:08:41.202Z,99848.00
2018-06-05T14:11:20.999Z,99843.00
2018-06-05T14:13:48.525Z,99839.00
2018-06-05T14:16:16.082Z,99847.00
2018-06-05T14:18:43.621Z,99846.00
2018-06-05T14:21:11.166Z,99834.00
2018-06-05T14:23:38.710Z,99844.00
2018-06-05T14:26:20.958Z,99843.00
2018-06-05T14:28:59.240Z,99843.00
2018-06-05T14:31:32.290Z,99842.00
2018-06-05T14:34:05.674Z,99844.00
2018-06-05T14:36:33.245Z,99845.00
2018-06-05T14:39:00.781Z,99838.00
2018-06-05T14:41:28.333Z,99833.00
2018-06-05T14:43:55.869Z,99841.00
2018-06-05T14:46:34.118Z,99836.00
2018-06-05T14:49:01.655Z,99835.00
2018-06-05T14:51:29.220Z,99835.00
2018-06-05T14:53:56.769Z,99838.00
2018-06-05T14:56:24.331Z,99844.00
2018-06-05T14:58:51.949Z,99832.00
2018-06-05T15:01:19.501Z,99831.00
2018-06-05T15:03:47.033Z,99825.00
2018-06-05T15:06:14.581Z,99819.00
2018-06-05T15:08:42.121Z,99820.00
2018-06-05T15:11:09.669Z,99825.00
2018-06-05T15:13:37.205Z,99818.00
2018-06-05T15:16:04.819Z,99812.00
2018-06-05T15:18:32.385Z,99812.00
2018-06-05T15:20:59.913Z,99806.00
2018-06-05T15:23:27.451Z,99802.00
2018-06-05T15:25:54.981Z,99800.00
2018-06-05T15:28:22.569Z,99803.00
2018-06-05T15:30:50.132Z,99802.00
2018-06-05T15:33:17.674Z,99803.00
2018-06-05T15:35:45.213Z,99799.00
2018-06-05T15:38:12.763Z,99800.00
2018-06-05T15:40:40.365Z,99803.00
2018-06-05T15:43:07.918Z,99795.00
2018-06-05T15:45:35.479Z,99805.00
2018-06-05T15:48:03.037Z,99807.00
2018-06-05T15:50:30.622Z,99806.00
2018-06-05T15:52:58.146Z,99799.00
2018-06-05T15:55:25.702Z,99811.00
2018-06-05T15:57:53.261Z,99806.00
2018-06-05T16:00:20.832Z,99811.00
2018-06-05T16:02:48.412Z,99810.00
2018-06-05T16:05:16.117Z,99818.00
2018-06-05T16:07:44.182Z,99804.00
2018-06-05T16:10:12.059Z,99799.00
2018-06-05T16:12:39.814Z,99800.00
2018-06-05T16:15:07.582Z,99810.00
2018-06-05T16:17:35.361Z,99800.00
2018-06-05T16:20:03.257Z,99803.00
2018-06-05T16:22:31.035Z,99798.00
2018-06-05T16:24:58.882Z,99792.00
2018-06-05T16:27:26.743Z,99793.00
2018-06-05T16:29:54.610Z,99792.00
2018-06-05T16:32:22.439Z,99795.00
2018-06-05T16:34:50.286Z,99787.00
2018-06-05T16:37:18.174Z,99792.00
2018-06-05T16:39:49.019Z,99793.00
2018-06-05T16:42:16.871Z,99791.00
2018-06-05T16:44:44.687Z,99789.00
2018-06-05T16:47:12.527Z,99790.00
2018-06-05T16:49:40.371Z,99792.00
2018-06-05T16:52:08.211Z,99796.00
2018-06-05T16:54:36.016Z,99789.00
2018-06-05T16:57:03.857Z,99789.00
2018-06-05T16:59:31.741Z,99787.00
2018-06-05T17:01:59.538Z,99794.00
2018-06-05T17:04:27.451Z,99797.00
2018-06-05T17:06:55.316Z,99797.00
2018-06-05T17:09:23.188Z,99792.00
2018-06-05T17:11:51.074Z,99800.00
2018-06-05T17:14:18.901Z,99795.00
2018-06-05T17:16:46.747Z,99801.00
2018-06-05T17:19:14.577Z,99801.00
2018-06-05T17:21:42.414Z,99797.00
2018-06-05T17:24:10.631Z,99801.00
2018-06-05T17:26:51.526Z,99804.00
2018-06-05T17:29:19.435Z,99807.00
2018-06-05T17:31:47.346Z,99802.00
2018-06-05T17:34:15.286Z,99806.00
2018-06-05T17:36:43.138Z,99809.00
2018-06-05T17:39:10.998Z,99817.00
2018-06-05T17:41:38.871Z,99805.00
2018-06-05T17:44:06.715Z,99805.00
2018-06-05T17:46:34.599Z,99809.00
2018-06-05T17:49:02.401Z,99808.00
2018-06-05T17:51:30.219Z,99810.00
2018-06-05T17:53:58.039Z,99809.00
2018-06-05T17:56:29.774Z,99804.00
2018-06-05T17:59:01.569Z,99807.00
2018-06-05T18:01:30.506Z,99818.00
2018-06-05T18:03:58.321Z,99811.00
2018-06-05T18:06:26.206Z,99821.00
2018-06-05T18:08:54.034Z,99813.00
2018-06-05T18:11:21.894Z,99819.00
2018-06-05T18:13:49.787Z,99819.00
2018-06-05T18:16:17.650Z,99822.00
2018-06-05T18:18:45.490Z,99827.00
2018-06-05T18:21:13.355Z,99820.00
2018-06-05T18:23:41.174Z,99821.00
2018-06-05T18:26:08.987Z,99826.00
2018-06-05T18:28:36.880Z,99828.00
2018-06-05T18:31:04.795Z,99825.00
2018-06-05T18:33:32.724Z,99829.00
2018-06-05T18:36:00.534Z,99831.00
2018-06-05T18:38:28.447Z,99827.00
2018-06-05T18:40:56.294Z,99826.00
2018-06-05T18:43:24.173Z,99825.00
2018-06-05T18:45:52.016Z,99825.00
2018-06-05T18:48:19.849Z,99819.00
2018-06-05T18:50:47.743Z,99829.00
2018-06-05T18:53:15.623Z,99839.00
2018-06-05T18:55:49.990Z,99841.00
2018-06-05T18:58:17.875Z,99838.00
2018-06-05T19:00:45.766Z,99836.00
2018-06-05T19:03:13.522Z,99842.00
2018-06-05T19:05:41.378Z,99836.00
2018-06-05T19:08:09.228Z,99846.00
2018-06-05T19:10:40.709Z,99848.00
2018-06-05T19:13:08.603Z,99855.00
2018-06-05T19:15:36.504Z,99863.00
2018-06-05T19:18:04.617Z,99862.00
2018-06-05T19:20:32.502Z,99863.00
2018-06-05T19:23:00.325Z,99867.00
2018-06-05T19:25:28.225Z,99868.00
2018-06-05T19:27:56.094Z,99871.00
2018-06-05T19:30:24.057Z,99874.00
2018-06-05T19:32:51.970Z,99872.00
2018-06-05T19:35:19.790Z,99875.00
2018-06-05T19:37:47.674Z,99876.00
2018-06-05T19:40:15.551Z,99889.00
2018-06-05T19:42:43.395Z,99889.00
2018-06-05T19:45:11.191Z,99889.00
2018-06-05T19:47:39.102Z,99876.00
2018-06-05T19:50:06.974Z,99874.00
2018-06-05T19:52:34.848Z,99878.00
2018-06-05T19:55:02.691Z,99881.00
2018-06-05T19:57:30.567Z,99891.00
2018-06-05T19:59:58.375Z,99889.00
2018-06-05T20:02:26.219Z,99878.00
2018-06-05T20:04:54.115Z,99886.00
2018-06-05T20:07:21.982Z,99887.00
2018-06-05T20:09:49.895Z,99892.00
2018-06-05T20:12:17.730Z,99896.00
2018-06-05T20:14:45.599Z,99888.00
2018-06-05T20:17:13.466Z,99894.00
2018-06-05T20:19:41.266Z,99904.00
2018-06-05T20:22:09.062Z,99908.00
2018-06-05T20:24:36.933Z,99911.00
2018-06-05T20:27:04.810Z,99910.00
2018-06-05T20:29:32.671Z,99905.00
2018-06-05T20:32:00.523Z,99907.00
2018-06-05T20:34:28.434Z,99909.00
2018-06-05T20:36:56.303Z,99912.00
2018-06-05T20:39:24.200Z,99914.00
2018-06-05T20:41:52.023Z,99915.00
2018-06-05T20:44:19.845Z,99912.00
2018-06-05T20:46:47.617Z,99924.00
2018-06-05T20:49:15.456Z,99916.00
2018-06-05T20:51:43.271Z,99916.00
2018-06-05T20:54:11.064Z,99910.00
2018-06-05T20:56:38.906Z,99908.00
2018-06-05T20:59:06.794Z,99915.00
2018-06-05T21:01:34.693Z,99908.00
2018-06-05T21:04:02.579Z,99906.00
2018-06-05T21:06:30.468Z,99905.00
2018-06-05T21:08:58.301Z,99909.00
2018-06-05T21:11:26.145Z,99917.00
2018-06-05T21:13:57.213Z,99907.00
2018-06-05T21:16:25.058Z,99915.00
2018-06-05T21:18:52.873Z,99916.00
2018-06-05T21:21:20.751Z,99918.00
2018-06-05T21:23:48.558Z,99921.00
2018-06-05T21:26:16.369Z,99928.00
2018-06-05T21:28:44.241Z,99925.00
2018-06-05T21:31:12.114Z,99932.00
2018-06-05T21:33:40.008Z,99927.00
2018-06-05T21:36:07.845Z,99929.00
2018-06-05T21:38:35.747Z,99937.00
2018-06-05T21:41:03.687Z,99938.00
2018-06-05T21:43:31.597Z,99946.00
2018-06-05T21:45:59.479Z,99953.00
2018-06-05T21:48:27.319Z,99961.00
2018-06-05T21:50:58.405Z,99952.00
2018-06-05T21:53:39.378Z,99959.00
2018-06-05T21:56:17.635Z,99953.00
2018-06-05T22:01:51.914Z,99961.00
2018-06-05T22:04:25.266Z,99960.00
2018-06-05T22:07:19.645Z,99966.00
2018-06-05T22:10:04.365Z,99963.00
2018-06-05T22:12:32.186Z,99968.00
2018-06-05T22:15:07.606Z,99968.00
2018-06-05T22:17:35.449Z,99969.00
2018-06-05T22:20:03.318Z,99976.00
2018-06-05T22:22:31.218Z,99975.00
2018-06-05T22:24:59.079Z,99967.00
2018-06-05T22:27:33.410Z,99979.00
2018-06-05T22:33:08.071Z,99978.00
2018-06-05T22:35:35.922Z,99968.00
2018-06-05T22:38:03.783Z,99973.00
2018-06-05T22:40:31.608Z,99979.00
2018-06-05T22:42:59.505Z,99974.00
2018-06-05T22:45:27.334Z,99976.00
2018-06-05T22:47:55.178Z,99981.00
2018-06-05T22:50:23.016Z,99976.00
2018-06-05T22:52:50.867Z,99970.00
2018-06-05T22:55:18.799Z,99966.00
2018-06-05T22:57:46.595Z,99970.00
2018-06-05T23:00:30.428Z,99968.00
2018-06-05T23:02:58.294Z,99972.00
2018-06-05T23:05:26.147Z,99971.00
2018-06-05T23:07:54.038Z,99972.00
2018-06-05T23:10:21.873Z,99982.00
2018-06-05T23:12:49.766Z,99982.00
2018-06-05T23:15:17.618Z,99983.00
2018-06-05T23:17:46.191Z,99994.00
2018-06-05T23:20:14.120Z,99988.00
2018-06-05T23:22:42.043Z,99994.00
2018-06-05T23:27:44.575Z,99984.00
2018-06-05T23:30:12.454Z,99995.00
2018-06-05T23:32:40.242Z,99994.00
2018-06-05T23:35:08.119Z,99994.00
2018-06-05T23:37:35.906Z,99994.00
2018-06-05T23:40:04.151Z,99994.00
2018-06-05T23:42:32.020Z,99993.00
2018-06-05T23:44:59.850Z,99995.00
2018-06-05T23:47:27.634Z,99990.00
2018-06-05T23:49:55.491Z,99997.00
2018-06-05T23:52:23.302Z,99994.00
2018-06-05T23:54:51.167Z,99987.00
2018-06-05T23:57:19.014Z,99993.00
2018-06-05T23:59:46.857Z,100001.00
